sensor_id;sensor_type;location;lat;lon;timestamp;P1;durP1;ratioP1;P2;durP2;ratioP2
70975;SDS011;58635;51.198;6.010;2022-10-22T00:02:20;4.35;;;2.50;;
70975;SDS011;58635;51.198;6.010;2022-10-22T00:04:46;6.07;;;2.80;;
70975;SDS011;58635;51.198;6.010;2022-10-22T00:07:12;9.40;;;2.78;;
70975;SDS011;58635;51.198;6.010;2022-10-22T00:09:41;6.80;;;2.45;;
70975;SDS011;58635;51.198;6.010;2022-10-22T00:12:06;6.32;;;2.78;;
70975;SDS011;58635;51.198;6.010;2022-10-22T00:14:32;5.72;;;2.53;;
70975;SDS011;58635;51.198;6.010;2022-10-22T00:16:58;9.40;;;2.70;;
70975;SDS011;58635;51.198;6.010;2022-10-22T00:19:25;7.88;;;2.60;;
70975;SDS011;58635;51.198;6.010;2022-10-22T00:21:51;7.43;;;2.90;;
70975;SDS011;58635;51.198;6.010;2022-10-22T00:24:17;7.13;;;2.55;;
70975;SDS011;58635;51.198;6.010;2022-10-22T00:26:43;6.93;;;2.53;;
70975;SDS011;58635;51.198;6.010;2022-10-22T00:29:08;6.47;;;2.63;;
70975;SDS011;58635;51.198;6.010;2022-10-22T00:31:33;5.35;;;2.60;;
70975;SDS011;58635;51.198;6.010;2022-10-22T00:33:59;5.85;;;2.58;;
70975;SDS011;58635;51.198;6.010;2022-10-22T00:36:25;5.38;;;2.45;;
70975;SDS011;58635;51.198;6.010;2022-10-22T00:38:51;6.53;;;3.00;;
70975;SDS011;58635;51.198;6.010;2022-10-22T00:41:16;5.30;;;2.80;;
70975;SDS011;58635;51.198;6.010;2022-10-22T00:43:52;9.50;;;3.40;;
70975;SDS011;58635;51.198;6.010;2022-10-22T00:46:28;9.23;;;2.75;;
70975;SDS011;58635;51.198;6.010;2022-10-22T00:48:54;8.57;;;3.15;;
70975;SDS011;58635;51.198;6.010;2022-10-22T00:51:24;8.23;;;3.28;;
70975;SDS011;58635;51.198;6.010;2022-10-22T00:53:56;7.70;;;3.10;;
70975;SDS011;58635;51.198;6.010;2022-10-22T00:56:27;5.75;;;3.30;;
70975;SDS011;58635;51.198;6.010;2022-10-22T00:58:54;10.20;;;3.78;;
70975;SDS011;58635;51.198;6.010;2022-10-22T01:01:23;8.57;;;3.40;;
70975;SDS011;58635;51.198;6.010;2022-10-22T01:03:51;7.78;;;3.60;;
70975;SDS011;58635;51.198;6.010;2022-10-22T01:06:27;7.40;;;3.22;;
70975;SDS011;58635;51.198;6.010;2022-10-22T01:09:03;7.38;;;3.20;;
70975;SDS011;58635;51.198;6.010;2022-10-22T01:11:34;7.03;;;2.83;;
70975;SDS011;58635;51.198;6.010;2022-10-22T01:22:17;6.25;;;2.88;;
70975;SDS011;58635;51.198;6.010;2022-10-22T01:30:11;6.22;;;2.60;;
70975;SDS011;58635;51.198;6.010;2022-10-22T01:32:44;6.05;;;2.88;;
70975;SDS011;58635;51.198;6.010;2022-10-22T01:35:13;6.57;;;2.75;;
70975;SDS011;58635;51.198;6.010;2022-10-22T01:37:46;7.28;;;2.65;;
70975;SDS011;58635;51.198;6.010;2022-10-22T01:40:15;6.03;;;2.40;;
70975;SDS011;58635;51.198;6.010;2022-10-22T01:42:41;7.47;;;3.03;;
70975;SDS011;58635;51.198;6.010;2022-10-22T01:45:10;5.90;;;2.42;;
70975;SDS011;58635;51.198;6.010;2022-10-22T01:58:40;5.78;;;2.80;;
70975;SDS011;58635;51.198;6.010;2022-10-22T02:06:24;10.48;;;3.00;;
70975;SDS011;58635;51.198;6.010;2022-10-22T02:08:51;8.07;;;3.33;;
70975;SDS011;58635;51.198;6.010;2022-10-22T02:11:18;7.18;;;3.20;;
70975;SDS011;58635;51.198;6.010;2022-10-22T02:13:46;6.97;;;3.10;;
70975;SDS011;58635;51.198;6.010;2022-10-22T02:16:17;7.03;;;2.90;;
70975;SDS011;58635;51.198;6.010;2022-10-22T02:18:50;7.10;;;2.88;;
70975;SDS011;58635;51.198;6.010;2022-10-22T02:21:18;5.93;;;3.40;;
70975;SDS011;58635;51.198;6.010;2022-10-22T02:23:44;8.02;;;3.20;;
70975;SDS011;58635;51.198;6.010;2022-10-22T02:26:13;11.77;;;3.50;;
70975;SDS011;58635;51.198;6.010;2022-10-22T02:29:02;9.85;;;3.05;;
70975;SDS011;58635;51.198;6.010;2022-10-22T02:31:36;7.90;;;3.30;;
70975;SDS011;58635;51.198;6.010;2022-10-22T02:34:06;10.02;;;3.20;;
70975;SDS011;58635;51.198;6.010;2022-10-22T02:36:36;8.80;;;3.03;;
70975;SDS011;58635;51.198;6.010;2022-10-22T02:39:03;9.68;;;3.40;;
70975;SDS011;58635;51.198;6.010;2022-10-22T02:41:30;9.40;;;3.05;;
70975;SDS011;58635;51.198;6.010;2022-10-22T02:43:56;9.45;;;3.20;;
70975;SDS011;58635;51.198;6.010;2022-10-22T02:46:22;7.13;;;3.35;;
70975;SDS011;58635;51.198;6.010;2022-10-22T02:48:48;10.15;;;3.38;;
70975;SDS011;58635;51.198;6.010;2022-10-22T02:51:14;7.78;;;3.13;;
70975;SDS011;58635;51.198;6.010;2022-10-22T02:53:39;7.15;;;3.22;;
70975;SDS011;58635;51.198;6.010;2022-10-22T02:56:04;6.65;;;3.35;;
70975;SDS011;58635;51.198;6.010;2022-10-22T02:58:30;6.38;;;2.92;;
70975;SDS011;58635;51.198;6.010;2022-10-22T03:00:55;8.90;;;3.15;;
70975;SDS011;58635;51.198;6.010;2022-10-22T03:03:21;8.68;;;3.45;;
70975;SDS011;58635;51.198;6.010;2022-10-22T03:05:46;8.68;;;3.20;;
70975;SDS011;58635;51.198;6.010;2022-10-22T03:08:12;6.97;;;3.22;;
70975;SDS011;58635;51.198;6.010;2022-10-22T03:10:37;7.15;;;3.28;;
70975;SDS011;58635;51.198;6.010;2022-10-22T03:13:02;8.73;;;3.47;;
70975;SDS011;58635;51.198;6.010;2022-10-22T03:15:28;8.43;;;3.50;;
70975;SDS011;58635;51.198;6.010;2022-10-22T03:17:53;6.90;;;3.15;;
70975;SDS011;58635;51.198;6.010;2022-10-22T03:20:18;6.72;;;2.85;;
70975;SDS011;58635;51.198;6.010;2022-10-22T03:22:44;9.00;;;3.20;;
70975;SDS011;58635;51.198;6.010;2022-10-22T03:25:11;8.57;;;3.50;;
70975;SDS011;58635;51.198;6.010;2022-10-22T03:27:40;7.80;;;3.70;;
70975;SDS011;58635;51.198;6.010;2022-10-22T03:30:07;6.10;;;3.28;;
70975;SDS011;58635;51.198;6.010;2022-10-22T03:32:33;9.48;;;3.38;;
70975;SDS011;58635;51.198;6.010;2022-10-22T03:34:58;7.25;;;3.25;;
70975;SDS011;58635;51.198;6.010;2022-10-22T03:37:24;8.60;;;3.58;;
70975;SDS011;58635;51.198;6.010;2022-10-22T03:39:51;11.98;;;3.70;;
70975;SDS011;58635;51.198;6.010;2022-10-22T03:42:17;7.32;;;2.90;;
70975;SDS011;58635;51.198;6.010;2022-10-22T03:44:43;8.18;;;3.42;;
70975;SDS011;58635;51.198;6.010;2022-10-22T03:47:09;10.82;;;3.88;;
70975;SDS011;58635;51.198;6.010;2022-10-22T03:49:35;6.78;;;3.13;;
70975;SDS011;58635;51.198;6.010;2022-10-22T03:52:04;8.25;;;3.53;;
70975;SDS011;58635;51.198;6.010;2022-10-22T03:54:34;7.05;;;3.55;;
70975;SDS011;58635;51.198;6.010;2022-10-22T03:57:00;7.88;;;3.60;;
70975;SDS011;58635;51.198;6.010;2022-10-22T03:59:25;7.75;;;3.60;;
70975;SDS011;58635;51.198;6.010;2022-10-22T04:01:51;9.68;;;3.55;;
70975;SDS011;58635;51.198;6.010;2022-10-22T04:04:16;8.00;;;3.38;;
70975;SDS011;58635;51.198;6.010;2022-10-22T04:06:41;8.35;;;3.92;;
70975;SDS011;58635;51.198;6.010;2022-10-22T04:09:07;7.50;;;3.38;;
70975;SDS011;58635;51.198;6.010;2022-10-22T04:11:32;8.02;;;3.00;;
70975;SDS011;58635;51.198;6.010;2022-10-22T04:13:57;6.28;;;3.17;;
70975;SDS011;58635;51.198;6.010;2022-10-22T04:16:23;6.47;;;3.45;;
70975;SDS011;58635;51.198;6.010;2022-10-22T04:18:48;7.13;;;3.28;;
70975;SDS011;58635;51.198;6.010;2022-10-22T04:21:15;6.25;;;3.28;;
70975;SDS011;58635;51.198;6.010;2022-10-22T04:23:46;9.32;;;3.50;;
70975;SDS011;58635;51.198;6.010;2022-10-22T04:26:12;8.15;;;3.28;;
70975;SDS011;58635;51.198;6.010;2022-10-22T04:28:38;5.30;;;3.30;;
70975;SDS011;58635;51.198;6.010;2022-10-22T04:31:11;10.52;;;3.35;;
70975;SDS011;58635;51.198;6.010;2022-10-22T04:33:40;8.52;;;3.20;;
70975;SDS011;58635;51.198;6.010;2022-10-22T04:36:10;6.75;;;3.20;;
70975;SDS011;58635;51.198;6.010;2022-10-22T04:38:40;6.43;;;3.67;;
70975;SDS011;58635;51.198;6.010;2022-10-22T04:41:11;7.00;;;3.85;;
70975;SDS011;58635;51.198;6.010;2022-10-22T04:43:39;6.30;;;3.55;;
70975;SDS011;58635;51.198;6.010;2022-10-22T04:46:05;6.05;;;3.35;;
70975;SDS011;58635;51.198;6.010;2022-10-22T04:48:33;6.40;;;3.30;;
70975;SDS011;58635;51.198;6.010;2022-10-22T04:51:02;6.55;;;3.58;;
70975;SDS011;58635;51.198;6.010;2022-10-22T04:53:30;6.10;;;3.28;;
70975;SDS011;58635;51.198;6.010;2022-10-22T04:56:05;7.28;;;3.72;;
70975;SDS011;58635;51.198;6.010;2022-10-22T04:58:32;8.18;;;3.45;;
70975;SDS011;58635;51.198;6.010;2022-10-22T05:00:57;6.93;;;3.40;;
70975;SDS011;58635;51.198;6.010;2022-10-22T05:03:25;6.65;;;3.03;;
70975;SDS011;58635;51.198;6.010;2022-10-22T05:05:51;9.25;;;4.05;;
70975;SDS011;58635;51.198;6.010;2022-10-22T05:08:16;5.97;;;2.95;;
70975;SDS011;58635;51.198;6.010;2022-10-22T05:10:41;6.50;;;3.25;;
70975;SDS011;58635;51.198;6.010;2022-10-22T05:13:07;6.35;;;3.25;;
70975;SDS011;58635;51.198;6.010;2022-10-22T05:15:32;7.45;;;2.97;;
70975;SDS011;58635;51.198;6.010;2022-10-22T05:17:58;8.75;;;3.20;;
70975;SDS011;58635;51.198;6.010;2022-10-22T05:20:23;9.82;;;3.13;;
70975;SDS011;58635;51.198;6.010;2022-10-22T05:22:49;9.00;;;3.20;;
70975;SDS011;58635;51.198;6.010;2022-10-22T05:25:14;6.38;;;3.00;;
70975;SDS011;58635;51.198;6.010;2022-10-22T05:27:39;7.30;;;3.10;;
70975;SDS011;58635;51.198;6.010;2022-10-22T05:30:05;6.38;;;2.70;;
70975;SDS011;58635;51.198;6.010;2022-10-22T05:32:31;6.43;;;3.00;;
70975;SDS011;58635;51.198;6.010;2022-10-22T05:34:59;6.30;;;2.80;;
70975;SDS011;58635;51.198;6.010;2022-10-22T05:37:24;7.07;;;2.83;;
70975;SDS011;58635;51.198;6.010;2022-10-22T05:39:50;6.18;;;2.50;;
70975;SDS011;58635;51.198;6.010;2022-10-22T05:42:15;5.65;;;2.47;;
70975;SDS011;58635;51.198;6.010;2022-10-22T05:44:41;6.47;;;2.75;;
70975;SDS011;58635;51.198;6.010;2022-10-22T05:47:06;5.65;;;2.40;;
70975;SDS011;58635;51.198;6.010;2022-10-22T05:49:32;5.70;;;2.50;;
70975;SDS011;58635;51.198;6.010;2022-10-22T05:51:57;5.50;;;2.17;;
70975;SDS011;58635;51.198;6.010;2022-10-22T05:54:22;8.68;;;2.55;;
70975;SDS011;58635;51.198;6.010;2022-10-22T05:56:48;9.95;;;2.65;;
70975;SDS011;58635;51.198;6.010;2022-10-22T05:59:13;11.98;;;2.80;;
70975;SDS011;58635;51.198;6.010;2022-10-22T06:01:39;9.80;;;2.55;;
70975;SDS011;58635;51.198;6.010;2022-10-22T06:04:06;6.55;;;2.38;;
70975;SDS011;58635;51.198;6.010;2022-10-22T06:09:20;7.72;;;2.38;;
70975;SDS011;58635;51.198;6.010;2022-10-22T06:11:49;6.15;;;2.50;;
70975;SDS011;58635;51.198;6.010;2022-10-22T06:14:15;6.68;;;2.40;;
70975;SDS011;58635;51.198;6.010;2022-10-22T06:16:42;8.18;;;2.45;;
70975;SDS011;58635;51.198;6.010;2022-10-22T06:19:11;8.13;;;2.85;;
70975;SDS011;58635;51.198;6.010;2022-10-22T06:21:37;10.48;;;3.10;;
70975;SDS011;58635;51.198;6.010;2022-10-22T06:24:03;8.77;;;2.65;;
70975;SDS011;58635;51.198;6.010;2022-10-22T06:26:29;15.32;;;3.28;;
70975;SDS011;58635;51.198;6.010;2022-10-22T06:28:55;8.05;;;2.80;;
70975;SDS011;58635;51.198;6.010;2022-10-22T06:31:21;7.25;;;2.63;;
70975;SDS011;58635;51.198;6.010;2022-10-22T06:33:46;6.15;;;2.50;;
70975;SDS011;58635;51.198;6.010;2022-10-22T06:36:13;9.48;;;2.50;;
70975;SDS011;58635;51.198;6.010;2022-10-22T06:38:40;6.20;;;2.35;;
70975;SDS011;58635;51.198;6.010;2022-10-22T06:41:08;8.73;;;2.53;;
70975;SDS011;58635;51.198;6.010;2022-10-22T06:43:35;7.35;;;2.15;;
70975;SDS011;58635;51.198;6.010;2022-10-22T06:46:01;8.88;;;2.58;;
70975;SDS011;58635;51.198;6.010;2022-10-22T06:48:28;7.25;;;2.35;;
70975;SDS011;58635;51.198;6.010;2022-10-22T06:50:53;9.32;;;2.58;;
70975;SDS011;58635;51.198;6.010;2022-10-22T06:53:19;7.45;;;2.67;;
70975;SDS011;58635;51.198;6.010;2022-10-22T06:55:44;7.50;;;2.38;;
70975;SDS011;58635;51.198;6.010;2022-10-22T06:58:10;9.52;;;2.17;;
70975;SDS011;58635;51.198;6.010;2022-10-22T07:00:35;7.97;;;2.25;;
70975;SDS011;58635;51.198;6.010;2022-10-22T07:03:00;7.03;;;2.40;;
70975;SDS011;58635;51.198;6.010;2022-10-22T07:05:26;8.75;;;2.25;;
70975;SDS011;58635;51.198;6.010;2022-10-22T07:07:51;7.95;;;2.80;;
70975;SDS011;58635;51.198;6.010;2022-10-22T07:10:17;10.07;;;2.72;;
70975;SDS011;58635;51.198;6.010;2022-10-22T07:12:42;9.55;;;3.20;;
70975;SDS011;58635;51.198;6.010;2022-10-22T07:15:08;7.03;;;2.40;;
70975;SDS011;58635;51.198;6.010;2022-10-22T07:17:33;7.47;;;2.13;;
70975;SDS011;58635;51.198;6.010;2022-10-22T07:19:59;8.57;;;2.17;;
70975;SDS011;58635;51.198;6.010;2022-10-22T07:22:24;8.05;;;2.58;;
70975;SDS011;58635;51.198;6.010;2022-10-22T07:24:50;10.27;;;2.25;;
70975;SDS011;58635;51.198;6.010;2022-10-22T07:27:16;5.57;;;2.05;;
70975;SDS011;58635;51.198;6.010;2022-10-22T07:29:41;8.90;;;2.60;;
70975;SDS011;58635;51.198;6.010;2022-10-22T07:32:06;8.55;;;2.95;;
70975;SDS011;58635;51.198;6.010;2022-10-22T07:34:32;8.77;;;3.15;;
70975;SDS011;58635;51.198;6.010;2022-10-22T07:36:58;8.95;;;2.10;;
70975;SDS011;58635;51.198;6.010;2022-10-22T07:39:23;6.50;;;2.05;;
70975;SDS011;58635;51.198;6.010;2022-10-22T07:41:50;9.48;;;2.53;;
70975;SDS011;58635;51.198;6.010;2022-10-22T07:44:15;8.85;;;2.55;;
70975;SDS011;58635;51.198;6.010;2022-10-22T07:46:41;11.65;;;2.78;;
70975;SDS011;58635;51.198;6.010;2022-10-22T07:49:06;9.60;;;3.17;;
70975;SDS011;58635;51.198;6.010;2022-10-22T07:51:32;9.93;;;2.15;;
70975;SDS011;58635;51.198;6.010;2022-10-22T07:53:57;6.97;;;1.92;;
70975;SDS011;58635;51.198;6.010;2022-10-22T07:56:22;6.15;;;2.17;;
70975;SDS011;58635;51.198;6.010;2022-10-22T07:58:48;5.72;;;1.80;;
70975;SDS011;58635;51.198;6.010;2022-10-22T08:01:14;6.05;;;2.08;;
70975;SDS011;58635;51.198;6.010;2022-10-22T08:03:39;8.55;;;2.05;;
70975;SDS011;58635;51.198;6.010;2022-10-22T08:06:05;5.60;;;1.65;;
70975;SDS011;58635;51.198;6.010;2022-10-22T08:08:30;11.73;;;2.10;;
70975;SDS011;58635;51.198;6.010;2022-10-22T08:10:56;5.68;;;1.65;;
70975;SDS011;58635;51.198;6.010;2022-10-22T08:13:24;7.93;;;1.65;;
70975;SDS011;58635;51.198;6.010;2022-10-22T08:15:50;8.77;;;1.85;;
70975;SDS011;58635;51.198;6.010;2022-10-22T08:18:15;9.07;;;2.20;;
70975;SDS011;58635;51.198;6.010;2022-10-22T08:20:41;7.70;;;2.45;;
70975;SDS011;58635;51.198;6.010;2022-10-22T08:23:06;11.13;;;1.75;;
70975;SDS011;58635;51.198;6.010;2022-10-22T08:25:32;9.13;;;2.20;;
70975;SDS011;58635;51.198;6.010;2022-10-22T08:27:58;8.20;;;2.65;;
70975;SDS011;58635;51.198;6.010;2022-10-22T08:30:23;8.55;;;2.00;;
70975;SDS011;58635;51.198;6.010;2022-10-22T08:32:51;9.70;;;2.10;;
70975;SDS011;58635;51.198;6.010;2022-10-22T08:35:17;6.30;;;1.88;;
70975;SDS011;58635;51.198;6.010;2022-10-22T08:37:42;10.20;;;2.00;;
70975;SDS011;58635;51.198;6.010;2022-10-22T08:40:08;10.45;;;2.33;;
70975;SDS011;58635;51.198;6.010;2022-10-22T08:45:22;7.43;;;1.80;;
70975;SDS011;58635;51.198;6.010;2022-10-22T08:50:32;7.68;;;1.65;;
70975;SDS011;58635;51.198;6.010;2022-10-22T08:53:19;6.78;;;1.52;;
70975;SDS011;58635;51.198;6.010;2022-10-22T08:55:47;8.30;;;1.98;;
70975;SDS011;58635;51.198;6.010;2022-10-22T08:58:21;6.88;;;1.75;;
70975;SDS011;58635;51.198;6.010;2022-10-22T09:00:58;8.30;;;1.80;;
70975;SDS011;58635;51.198;6.010;2022-10-22T09:06:11;7.28;;;1.75;;
70975;SDS011;58635;51.198;6.010;2022-10-22T09:08:39;6.70;;;1.73;;
70975;SDS011;58635;51.198;6.010;2022-10-22T09:13:54;5.55;;;1.80;;
70975;SDS011;58635;51.198;6.010;2022-10-22T09:16:28;9.18;;;2.00;;
70975;SDS011;58635;51.198;6.010;2022-10-22T09:19:13;9.48;;;2.70;;
70975;SDS011;58635;51.198;6.010;2022-10-22T09:21:45;7.25;;;2.33;;
70975;SDS011;58635;51.198;6.010;2022-10-22T09:24:21;7.65;;;3.00;;
70975;SDS011;58635;51.198;6.010;2022-10-22T09:26:52;9.57;;;1.63;;
70975;SDS011;58635;51.198;6.010;2022-10-22T09:29:18;8.52;;;1.80;;
70975;SDS011;58635;51.198;6.010;2022-10-22T09:31:48;8.40;;;2.13;;
70975;SDS011;58635;51.198;6.010;2022-10-22T09:34:15;5.72;;;1.80;;
70975;SDS011;58635;51.198;6.010;2022-10-22T09:36:45;5.95;;;1.45;;
70975;SDS011;58635;51.198;6.010;2022-10-22T09:39:32;6.82;;;1.80;;
70975;SDS011;58635;51.198;6.010;2022-10-22T09:41:57;6.45;;;1.40;;
70975;SDS011;58635;51.198;6.010;2022-10-22T09:44:23;6.78;;;1.20;;
70975;SDS011;58635;51.198;6.010;2022-10-22T09:46:51;6.18;;;1.40;;
70975;SDS011;58635;51.198;6.010;2022-10-22T09:49:27;5.43;;;1.52;;
70975;SDS011;58635;51.198;6.010;2022-10-22T09:51:57;5.53;;;1.60;;
70975;SDS011;58635;51.198;6.010;2022-10-22T09:54:25;6.25;;;1.45;;
70975;SDS011;58635;51.198;6.010;2022-10-22T09:59:38;5.88;;;1.60;;
70975;SDS011;58635;51.198;6.010;2022-10-22T10:02:14;8.32;;;1.60;;
70975;SDS011;58635;51.198;6.010;2022-10-22T10:04:46;5.75;;;1.40;;
70975;SDS011;58635;51.198;6.010;2022-10-22T10:07:17;7.07;;;2.30;;
70975;SDS011;58635;51.198;6.010;2022-10-22T10:09:44;7.78;;;2.60;;
70975;SDS011;58635;51.198;6.010;2022-10-22T10:18:01;5.95;;;1.33;;
70975;SDS011;58635;51.198;6.010;2022-10-22T10:26:03;4.28;;;1.10;;
70975;SDS011;58635;51.198;6.010;2022-10-22T10:37:23;5.03;;;1.50;;
70975;SDS011;58635;51.198;6.010;2022-10-22T10:45:22;6.63;;;1.30;;
70975;SDS011;58635;51.198;6.010;2022-10-22T10:48:10;6.15;;;1.27;;
70975;SDS011;58635;51.198;6.010;2022-10-22T10:50:58;5.85;;;1.40;;
70975;SDS011;58635;51.198;6.010;2022-10-22T11:04:25;7.00;;;1.42;;
70975;SDS011;58635;51.198;6.010;2022-10-22T11:06:57;7.55;;;1.85;;
70975;SDS011;58635;51.198;6.010;2022-10-22T11:09:31;6.88;;;2.08;;
70975;SDS011;58635;51.198;6.010;2022-10-22T11:12:03;9.10;;;1.70;;
70975;SDS011;58635;51.198;6.010;2022-10-22T11:17:36;5.35;;;1.48;;
70975;SDS011;58635;51.198;6.010;2022-10-22T11:20:16;8.52;;;1.60;;
70975;SDS011;58635;51.198;6.010;2022-10-22T11:22:53;6.90;;;1.30;;
70975;SDS011;58635;51.198;6.010;2022-10-22T11:25:27;9.75;;;1.70;;
70975;SDS011;58635;51.198;6.010;2022-10-22T11:30:30;4.68;;;1.00;;
70975;SDS011;58635;51.198;6.010;2022-10-22T11:33:02;5.35;;;1.38;;
70975;SDS011;58635;51.198;6.010;2022-10-22T11:35:35;5.13;;;1.45;;
70975;SDS011;58635;51.198;6.010;2022-10-22T11:38:05;6.63;;;1.52;;
70975;SDS011;58635;51.198;6.010;2022-10-22T11:40:37;8.65;;;1.30;;
70975;SDS011;58635;51.198;6.010;2022-10-22T11:43:31;5.13;;;1.17;;
70975;SDS011;58635;51.198;6.010;2022-10-22T11:46:42;5.70;;;1.80;;
70975;SDS011;58635;51.198;6.010;2022-10-22T11:48:41;6.50;;;2.20;;
70975;SDS011;58635;51.198;6.010;2022-10-22T11:53:57;5.68;;;1.30;;
70975;SDS011;58635;51.198;6.010;2022-10-22T11:56:28;5.97;;;1.30;;
70975;SDS011;58635;51.198;6.010;2022-10-22T11:59:02;5.85;;;1.20;;
70975;SDS011;58635;51.198;6.010;2022-10-22T12:01:29;8.32;;;1.70;;
70975;SDS011;58635;51.198;6.010;2022-10-22T12:06:59;9.13;;;1.45;;
70975;SDS011;58635;51.198;6.010;2022-10-22T12:09:25;3.70;;;1.02;;
70975;SDS011;58635;51.198;6.010;2022-10-22T12:12:03;5.15;;;1.27;;
70975;SDS011;58635;51.198;6.010;2022-10-22T12:14:50;4.35;;;1.10;;
70975;SDS011;58635;51.198;6.010;2022-10-22T12:17:17;4.68;;;1.10;;
70975;SDS011;58635;51.198;6.010;2022-10-22T12:19:46;4.50;;;1.25;;
70975;SDS011;58635;51.198;6.010;2022-10-22T12:22:35;4.60;;;1.20;;
70975;SDS011;58635;51.198;6.010;2022-10-22T12:25:05;5.57;;;1.27;;
70975;SDS011;58635;51.198;6.010;2022-10-22T12:27:39;5.28;;;1.42;;
70975;SDS011;58635;51.198;6.010;2022-10-22T12:30:20;8.57;;;2.00;;
70975;SDS011;58635;51.198;6.010;2022-10-22T12:32:50;3.75;;;1.40;;
70975;SDS011;58635;51.198;6.010;2022-10-22T12:35:25;5.93;;;1.20;;
70975;SDS011;58635;51.198;6.010;2022-10-22T12:37:54;5.47;;;1.75;;
70975;SDS011;58635;51.198;6.010;2022-10-22T12:40:30;5.75;;;1.13;;
70975;SDS011;58635;51.198;6.010;2022-10-22T12:42:59;5.07;;;1.33;;
70975;SDS011;58635;51.198;6.010;2022-10-22T12:45:29;6.10;;;1.60;;
70975;SDS011;58635;51.198;6.010;2022-10-22T12:47:57;7.38;;;1.48;;
70975;SDS011;58635;51.198;6.010;2022-10-22T12:50:41;4.70;;;1.00;;
70975;SDS011;58635;51.198;6.010;2022-10-22T12:55:56;6.78;;;1.30;;
70975;SDS011;58635;51.198;6.010;2022-10-22T12:58:26;4.38;;;1.20;;
70975;SDS011;58635;51.198;6.010;2022-10-22T13:00:56;3.28;;;1.00;;
70975;SDS011;58635;51.198;6.010;2022-10-22T13:08:43;6.20;;;1.33;;
70975;SDS011;58635;51.198;6.010;2022-10-22T13:11:39;5.10;;;1.45;;
70975;SDS011;58635;51.198;6.010;2022-10-22T13:19:42;5.82;;;1.42;;
70975;SDS011;58635;51.198;6.010;2022-10-22T13:30:16;4.47;;;1.40;;
70975;SDS011;58635;51.198;6.010;2022-10-22T13:32:48;4.25;;;1.20;;
70975;SDS011;58635;51.198;6.010;2022-10-22T13:35:19;4.07;;;1.20;;
70975;SDS011;58635;51.198;6.010;2022-10-22T13:37:48;4.97;;;1.52;;
70975;SDS011;58635;51.198;6.010;2022-10-22T13:40:14;5.18;;;1.40;;
70975;SDS011;58635;51.198;6.010;2022-10-22T13:42:39;4.55;;;1.30;;
70975;SDS011;58635;51.198;6.010;2022-10-22T13:45:05;5.10;;;1.10;;
70975;SDS011;58635;51.198;6.010;2022-10-22T13:47:31;4.75;;;1.30;;
70975;SDS011;58635;51.198;6.010;2022-10-22T13:49:58;6.43;;;1.08;;
70975;SDS011;58635;51.198;6.010;2022-10-22T13:52:36;8.10;;;1.40;;
70975;SDS011;58635;51.198;6.010;2022-10-22T13:55:20;5.03;;;1.08;;
70975;SDS011;58635;51.198;6.010;2022-10-22T13:57:54;4.72;;;1.15;;
70975;SDS011;58635;51.198;6.010;2022-10-22T14:00:22;3.70;;;1.13;;
70975;SDS011;58635;51.198;6.010;2022-10-22T14:02:49;5.70;;;2.55;;
70975;SDS011;58635;51.198;6.010;2022-10-22T14:05:18;5.50;;;2.55;;
70975;SDS011;58635;51.198;6.010;2022-10-22T14:07:44;6.72;;;1.60;;
70975;SDS011;58635;51.198;6.010;2022-10-22T14:10:17;4.75;;;1.25;;
70975;SDS011;58635;51.198;6.010;2022-10-22T14:12:45;6.97;;;1.25;;
70975;SDS011;58635;51.198;6.010;2022-10-22T14:15:11;4.93;;;1.35;;
70975;SDS011;58635;51.198;6.010;2022-10-22T14:17:38;6.72;;;1.58;;
70975;SDS011;58635;51.198;6.010;2022-10-22T14:20:09;4.60;;;1.10;;
70975;SDS011;58635;51.198;6.010;2022-10-22T14:22:39;5.47;;;1.30;;
70975;SDS011;58635;51.198;6.010;2022-10-22T14:25:05;5.10;;;1.30;;
70975;SDS011;58635;51.198;6.010;2022-10-22T14:27:30;5.35;;;1.60;;
70975;SDS011;58635;51.198;6.010;2022-10-22T14:29:55;6.90;;;1.80;;
70975;SDS011;58635;51.198;6.010;2022-10-22T14:32:21;4.95;;;1.40;;
70975;SDS011;58635;51.198;6.010;2022-10-22T14:34:46;4.75;;;1.23;;
70975;SDS011;58635;51.198;6.010;2022-10-22T14:37:14;3.47;;;1.08;;
70975;SDS011;58635;51.198;6.010;2022-10-22T14:39:44;5.13;;;1.35;;
70975;SDS011;58635;51.198;6.010;2022-10-22T14:42:11;5.63;;;1.33;;
70975;SDS011;58635;51.198;6.010;2022-10-22T14:44:38;6.00;;;1.40;;
70975;SDS011;58635;51.198;6.010;2022-10-22T14:47:04;6.38;;;1.30;;
70975;SDS011;58635;51.198;6.010;2022-10-22T14:49:30;5.25;;;1.50;;
70975;SDS011;58635;51.198;6.010;2022-10-22T14:51:55;6.10;;;1.50;;
70975;SDS011;58635;51.198;6.010;2022-10-22T14:54:21;7.03;;;1.50;;
70975;SDS011;58635;51.198;6.010;2022-10-22T14:56:46;4.15;;;1.35;;
70975;SDS011;58635;51.198;6.010;2022-10-22T14:59:11;6.10;;;1.48;;
70975;SDS011;58635;51.198;6.010;2022-10-22T15:01:37;6.00;;;1.63;;
70975;SDS011;58635;51.198;6.010;2022-10-22T15:04:03;5.28;;;1.30;;
70975;SDS011;58635;51.198;6.010;2022-10-22T15:06:29;4.85;;;1.70;;
70975;SDS011;58635;51.198;6.010;2022-10-22T15:08:54;6.10;;;2.90;;
70975;SDS011;58635;51.198;6.010;2022-10-22T15:11:19;6.80;;;2.22;;
70975;SDS011;58635;51.198;6.010;2022-10-22T15:13:46;6.35;;;1.90;;
70975;SDS011;58635;51.198;6.010;2022-10-22T15:16:12;5.60;;;1.30;;
70975;SDS011;58635;51.198;6.010;2022-10-22T15:18:40;7.53;;;1.38;;
70975;SDS011;58635;51.198;6.010;2022-10-22T15:21:07;6.28;;;1.35;;
70975;SDS011;58635;51.198;6.010;2022-10-22T15:23:38;4.53;;;1.50;;
70975;SDS011;58635;51.198;6.010;2022-10-22T15:26:08;4.68;;;1.55;;
70975;SDS011;58635;51.198;6.010;2022-10-22T15:28:35;3.58;;;1.10;;
70975;SDS011;58635;51.198;6.010;2022-10-22T15:31:02;4.40;;;1.27;;
70975;SDS011;58635;51.198;6.010;2022-10-22T15:33:27;5.95;;;1.42;;
70975;SDS011;58635;51.198;6.010;2022-10-22T15:35:53;5.32;;;1.58;;
70975;SDS011;58635;51.198;6.010;2022-10-22T15:38:19;5.30;;;1.80;;
70975;SDS011;58635;51.198;6.010;2022-10-22T15:40:45;6.35;;;1.60;;
70975;SDS011;58635;51.198;6.010;2022-10-22T15:43:10;4.85;;;1.52;;
70975;SDS011;58635;51.198;6.010;2022-10-22T15:45:36;4.35;;;1.35;;
70975;SDS011;58635;51.198;6.010;2022-10-22T15:48:02;4.38;;;1.20;;
70975;SDS011;58635;51.198;6.010;2022-10-22T15:50:27;7.20;;;1.35;;
70975;SDS011;58635;51.198;6.010;2022-10-22T15:52:53;8.48;;;1.58;;
70975;SDS011;58635;51.198;6.010;2022-10-22T15:55:19;5.55;;;1.58;;
70975;SDS011;58635;51.198;6.010;2022-10-22T15:57:45;5.07;;;1.60;;
70975;SDS011;58635;51.198;6.010;2022-10-22T16:00:10;5.03;;;2.00;;
70975;SDS011;58635;51.198;6.010;2022-10-22T16:02:36;6.82;;;2.33;;
70975;SDS011;58635;51.198;6.010;2022-10-22T16:05:01;8.35;;;3.20;;
70975;SDS011;58635;51.198;6.010;2022-10-22T16:07:27;7.85;;;2.42;;
70975;SDS011;58635;51.198;6.010;2022-10-22T16:09:54;5.03;;;1.90;;
70975;SDS011;58635;51.198;6.010;2022-10-22T16:12:21;7.85;;;2.30;;
70975;SDS011;58635;51.198;6.010;2022-10-22T16:14:48;8.00;;;1.90;;
70975;SDS011;58635;51.198;6.010;2022-10-22T16:17:14;5.20;;;1.70;;
70975;SDS011;58635;51.198;6.010;2022-10-22T16:19:40;9.40;;;1.80;;
70975;SDS011;58635;51.198;6.010;2022-10-22T16:22:05;6.35;;;1.63;;
70975;SDS011;58635;51.198;6.010;2022-10-22T16:24:34;7.60;;;1.85;;
70975;SDS011;58635;51.198;6.010;2022-10-22T16:26:59;5.22;;;1.50;;
70975;SDS011;58635;51.198;6.010;2022-10-22T16:29:25;5.28;;;1.63;;
70975;SDS011;58635;51.198;6.010;2022-10-22T16:31:50;5.53;;;1.73;;
70975;SDS011;58635;51.198;6.010;2022-10-22T16:34:15;7.25;;;2.08;;
70975;SDS011;58635;51.198;6.010;2022-10-22T16:36:41;8.30;;;2.75;;
70975;SDS011;58635;51.198;6.010;2022-10-22T16:39:08;7.30;;;2.42;;
70975;SDS011;58635;51.198;6.010;2022-10-22T16:41:33;10.68;;;3.10;;
70975;SDS011;58635;51.198;6.010;2022-10-22T16:44:00;9.25;;;2.97;;
70975;SDS011;58635;51.198;6.010;2022-10-22T16:46:29;7.07;;;2.78;;
70975;SDS011;58635;51.198;6.010;2022-10-22T16:48:56;5.45;;;2.65;;
70975;SDS011;58635;51.198;6.010;2022-10-22T16:51:23;8.07;;;2.90;;